Time;durP1;ratioP1;P1;durP2;ratioP2;P2;SDS_P1;SDS_P2;PMS_P1;PMS_P2;Temp;Humidity;BMP_temperature;BMP_pressure;BME280_temperature;BME280_humidity;BME280_pressure;Samples;Min_cycle;Max_cycle;Signal;HPM_P1;HPM_P2
2022/06/11 00:01:25;;;;;;;17.35;9.70;;;18.10;99.90;;;;;;5034323;28;20036;-79
2022/06/11 00:03:55;;;;;;;12.88;8.60;;;18.10;99.90;;;;;;5034031;28;20025;-80
2022/06/11 00:06:21;;;;;;;14.27;9.13;;;18.10;99.90;;;;;;5034264;28;20505;-80
2022/06/11 00:08:48;;;;;;;14.80;9.40;;;18.10;99.90;;;;;;5034262;28;20025;-82
2022/06/11 00:11:14;;;;;;;17.63;9.43;;;18.10;99.90;;;;;;5033874;28;20080;-77
2022/06/11 00:13:42;;;;;;;16.05;9.48;;;18.10;99.90;;;;;;5033890;28;20128;-79
2022/06/11 00:16:09;;;;;;;15.57;9.38;;;18.10;99.90;;;;;;5032818;28;20105;-78
2022/06/11 00:18:37;;;;;;;14.23;8.82;;;18.00;99.90;;;;;;5033472;28;20479;-78
2022/06/11 00:21:04;;;;;;;13.13;8.65;;;18.00;99.90;;;;;;5033987;28;20044;-79
2022/06/11 00:23:31;;;;;;;10.98;8.02;;;18.00;99.90;;;;;;5034380;28;20021;-78
2022/06/11 00:25:56;;;;;;;17.95;9.45;;;17.90;99.90;;;;;;5034224;28;20352;-78
2022/06/11 00:28:22;;;;;;;15.60;9.52;;;17.90;99.90;;;;;;5034893;28;20024;-80
2022/06/11 00:30:48;;;;;;;17.27;9.43;;;17.90;99.90;;;;;;5034422;28;20033;-79
2022/06/11 00:33:14;;;;;;;15.25;8.82;;;17.90;99.90;;;;;;5033444;28;20021;-78
2022/06/11 00:35:41;;;;;;;14.27;9.45;;;17.80;99.90;;;;;;5034433;28;20095;-80
2022/06/11 00:38:08;;;;;;;18.13;9.65;;;17.80;99.90;;;;;;5034392;28;20047;-80
2022/06/11 00:40:37;;;;;;;14.95;9.07;;;17.80;99.90;;;;;;5034101;28;20418;-79
2022/06/11 00:43:06;;;;;;;15.10;9.13;;;17.80;99.90;;;;;;5034070;28;20018;-81
2022/06/11 00:45:56;;;;;;;13.77;10.05;;;17.80;99.90;;;;;;5034411;28;20052;-78
2022/06/11 00:48:33;;;;;;;20.67;9.65;;;17.80;99.90;;;;;;5035866;28;20036;-79
2022/06/11 00:51:16;;;;;;;18.80;10.52;;;17.80;99.90;;;;;;5034201;28;20535;-78
2022/06/11 00:54:10;;;;;;;15.55;10.23;;;17.80;99.90;;;;;;5032641;28;20017;-79
2022/06/11 00:56:41;;;;;;;20.45;9.80;;;17.80;99.90;;;;;;5033705;28;20033;-78
2022/06/11 00:59:15;;;;;;;15.57;10.52;;;17.70;99.90;;;;;;5034377;28;20100;-77
2022/06/11 01:01:41;;;;;;;21.70;11.02;;;17.70;99.90;;;;;;5033608;28;20075;-77
2022/06/11 01:04:34;;;;;;;19.38;10.80;;;17.70;99.90;;;;;;5033723;28;20025;-76
2022/06/11 01:07:22;;;;;;;23.45;11.35;;;17.70;99.90;;;;;;5033373;28;20076;-77
2022/06/11 01:10:07;;;;;;;17.38;11.38;;;17.70;99.90;;;;;;5031437;28;20040;-78
2022/06/11 01:12:42;;;;;;;16.52;10.68;;;17.60;99.90;;;;;;5033235;28;20403;-79
2022/06/11 01:15:21;;;;;;;21.30;11.50;;;17.60;99.90;;;;;;5033283;28;20100;-78
2022/06/11 01:17:52;;;;;;;24.42;12.18;;;17.60;99.90;;;;;;5032277;28;20455;-80
2022/06/11 01:20:29;;;;;;;16.33;11.10;;;17.60;99.90;;;;;;5032639;28;20029;-77
2022/06/11 01:23:16;;;;;;;23.80;11.77;;;17.50;99.90;;;;;;5033444;28;20028;-78
2022/06/11 01:26:00;;;;;;;18.92;11.25;;;17.50;99.90;;;;;;5032230;28;20021;-77
2022/06/11 01:28:42;;;;;;;24.45;12.15;;;17.50;99.90;;;;;;5033435;28;20021;-78
2022/06/11 01:31:13;;;;;;;24.00;12.20;;;17.50;99.90;;;;;;5033423;28;20588;-79
2022/06/11 01:33:57;;;;;;;21.30;13.57;;;17.50;99.90;;;;;;5033790;28;20067;-78
2022/06/11 01:36:35;;;;;;;25.00;12.82;;;17.40;99.90;;;;;;5033297;28;20032;-78
2022/06/11 01:39:07;;;;;;;20.67;11.80;;;17.40;99.90;;;;;;5032351;28;20431;-78
2022/06/11 01:41:47;;;;;;;21.42;12.20;;;17.40;99.90;;;;;;5033086;28;20414;-78
2022/06/11 01:44:21;;;;;;;16.38;11.07;;;17.40;99.90;;;;;;5033087;28;20103;-78
2022/06/11 01:46:51;;;;;;;19.05;12.13;;;17.40;99.90;;;;;;5033636;28;20020;-78
2022/06/11 01:49:23;;;;;;;18.13;11.95;;;17.40;99.90;;;;;;5033332;28;20053;-80
2022/06/11 01:52:22;;;;;;;23.88;13.10;;;17.40;99.90;;;;;;5033086;28;20348;-78
2022/06/11 01:55:09;;;;;;;18.85;12.48;;;17.40;99.90;;;;;;5033544;28;20079;-79
2022/06/11 01:57:56;;;;;;;20.00;12.27;;;17.30;99.90;;;;;;5032965;28;20032;-79
2022/06/11 02:00:23;;;;;;;18.65;11.93;;;17.30;99.90;;;;;;5033489;28;20054;-79
2022/06/11 02:02:56;;;;;;;19.55;12.15;;;17.30;99.90;;;;;;5033094;28;20030;-79
2022/06/11 02:05:21;;;;;;;17.58;11.70;;;17.30;99.90;;;;;;5033357;28;20393;-79
2022/06/11 02:08:01;;;;;;;24.95;11.88;;;17.30;99.90;;;;;;5033423;28;20460;-80
2022/06/11 02:10:46;;;;;;;21.38;12.13;;;17.30;99.90;;;;;;5032787;28;20472;-79
2022/06/11 02:13:25;;;;;;;17.25;12.35;;;17.30;99.90;;;;;;5031705;28;20022;-79
2022/06/11 02:15:57;;;;;;;25.88;13.25;;;17.20;99.90;;;;;;5031767;28;20025;-79
2022/06/11 02:18:25;;;;;;;22.60;13.32;;;17.20;99.90;;;;;;5031497;28;20041;-80
2022/06/11 02:21:05;;;;;;;22.95;13.25;;;17.20;99.90;;;;;;5034783;28;20025;-80
2022/06/11 02:23:49;;;;;;;19.90;13.00;;;17.30;99.90;;;;;;5037104;28;20104;-79
2022/06/11 02:26:22;;;;;;;20.55;12.90;;;17.30;99.90;;;;;;5036783;28;20484;-79
2022/06/11 02:28:50;;;;;;;24.33;13.50;;;17.30;99.90;;;;;;5035957;28;20033;-77
2022/06/11 02:31:23;;;;;;;23.60;13.13;;;17.20;99.90;;;;;;5036096;28;20034;-79
2022/06/11 02:33:50;;;;;;;20.60;13.68;;;17.20;99.90;;;;;;5037080;28;20013;-79
2022/06/11 02:36:18;;;;;;;23.92;14.07;;;17.20;99.90;;;;;;5036555;28;20100;-79
2022/06/11 02:38:45;;;;;;;24.08;13.55;;;17.20;99.90;;;;;;5036503;28;20021;-80
2022/06/11 02:41:19;;;;;;;23.25;13.32;;;17.20;99.90;;;;;;5036634;28;20017;-78
2022/06/11 02:43:45;;;;;;;17.30;12.57;;;17.20;99.90;;;;;;5036452;28;20035;-79
2022/06/11 02:48:56;;;;;;;20.20;13.02;;;17.20;99.90;;;;;;5036028;28;20471;-79
2022/06/11 02:51:24;;;;;;;22.20;14.75;;;17.20;99.90;;;;;;5036373;28;20467;-78
2022/06/11 02:53:50;;;;;;;23.95;13.98;;;17.20;99.90;;;;;;5034874;28;20021;-79
2022/06/11 02:56:17;;;;;;;23.20;14.57;;;17.20;99.90;;;;;;5035063;28;20036;-78
2022/06/11 02:58:43;;;;;;;27.00;13.98;;;17.20;99.90;;;;;;5035976;28;20024;-78
2022/06/11 03:01:09;;;;;;;25.40;14.73;;;17.20;99.90;;;;;;5036235;28;20044;-78
2022/06/11 03:03:36;;;;;;;20.10;13.98;;;17.20;99.90;;;;;;5036232;28;20448;-79
2022/06/11 03:06:03;;;;;;;27.08;14.40;;;17.20;99.90;;;;;;5049087;28;20025;-79
2022/06/11 03:08:30;;;;;;;36.97;14.98;;;17.10;99.90;;;;;;5055223;28;20104;-79
2022/06/11 03:10:56;;;;;;;21.08;13.32;;;17.10;99.90;;;;;;5055565;28;20368;-79
2022/06/11 03:13:22;;;;;;;25.10;14.23;;;17.10;99.90;;;;;;5055463;28;20029;-81
2022/06/11 03:15:49;;;;;;;22.95;14.50;;;17.10;99.90;;;;;;5055960;28;20017;-79
2022/06/11 03:18:14;;;;;;;21.73;13.75;;;17.10;99.90;;;;;;5055677;28;20045;-77
2022/06/11 03:20:41;;;;;;;23.40;14.07;;;17.10;99.90;;;;;;5055493;28;20033;-78
2022/06/11 03:23:07;;;;;;;25.50;14.45;;;17.10;99.90;;;;;;5055886;28;20025;-79
2022/06/11 03:25:34;;;;;;;22.55;14.27;;;17.10;99.90;;;;;;5055280;28;20444;-79
2022/06/11 03:28:16;;;;;;;22.23;13.75;;;17.10;99.90;;;;;;5055450;28;20023;-78
2022/06/11 03:30:42;;;;;;;22.60;14.70;;;17.10;99.90;;;;;;5055442;28;20047;-79
2022/06/11 03:33:08;;;;;;;21.08;14.30;;;17.10;99.90;;;;;;5055679;28;20029;-79
2022/06/11 03:35:35;;;;;;;25.63;14.90;;;17.10;99.90;;;;;;5055543;28;20036;-80
2022/06/11 03:38:02;;;;;;;27.00;15.05;;;17.10;99.90;;;;;;5054384;28;20025;-79
2022/06/11 03:40:28;;;;;;;27.33;15.60;;;17.10;99.90;;;;;;5055545;28;20039;-82
2022/06/11 03:42:54;;;;;;;24.20;15.20;;;17.10;99.90;;;;;;5055159;28;20021;-80
2022/06/11 03:45:21;;;;;;;28.38;15.95;;;17.10;99.90;;;;;;5055100;28;20036;-79
2022/06/11 03:47:47;;;;;;;24.65;16.17;;;17.10;99.90;;;;;;5055010;28;20440;-78
2022/06/11 03:50:24;;;;;;;26.05;15.80;;;17.20;99.90;;;;;;5055486;28;20056;-79
2022/06/11 03:52:50;;;;;;;25.75;16.13;;;17.20;99.90;;;;;;5054383;28;20036;-79
2022/06/11 03:55:16;;;;;;;23.05;15.85;;;17.30;99.90;;;;;;5054673;28;20053;-80
2022/06/11 03:57:41;;;;;;;20.88;15.65;;;17.30;99.90;;;;;;5055244;28;20497;-79
2022/06/11 04:00:10;;;;;;;26.10;15.88;;;17.40;99.90;;;;;;5053720;28;20111;-80
2022/06/11 04:02:37;;;;;;;27.88;15.23;;;17.50;99.90;;;;;;5053393;28;20074;-78
2022/06/11 04:05:04;;;;;;;28.95;15.50;;;17.50;99.90;;;;;;5055098;28;20020;-79
2022/06/11 04:07:31;;;;;;;20.42;15.48;;;17.50;99.90;;;;;;5053743;28;20032;-78
2022/06/11 04:09:57;;;;;;;27.75;19.52;;;17.50;99.90;;;;;;5053267;28;20120;-80
2022/06/11 04:12:23;;;;;;;41.95;28.83;;;17.60;99.90;;;;;;5054948;28;20060;-79
2022/06/11 04:14:49;;;;;;;32.05;24.00;;;17.60;99.90;;;;;;5054966;28;20110;-79
2022/06/11 04:17:28;;;;;;;29.98;20.55;;;17.60;99.90;;;;;;5053250;28;20420;-77
2022/06/11 04:19:55;;;;;;;26.85;17.00;;;17.60;99.90;;;;;;5054145;28;20049;-79
2022/06/11 04:22:21;;;;;;;26.58;17.55;;;17.60;99.90;;;;;;5054764;28;20138;-77
2022/06/11 04:24:48;;;;;;;27.42;17.08;;;17.70;99.90;;;;;;5054437;28;20395;-79
2022/06/11 04:27:16;;;;;;;32.58;18.30;;;17.70;99.90;;;;;;5054141;28;20021;-80
2022/06/11 04:29:47;;;;;;;21.63;15.38;;;17.80;99.90;;;;;;5053472;28;20025;-80
2022/06/11 04:32:15;;;;;;;23.83;15.63;;;17.80;99.90;;;;;;5054285;28;20521;-79
2022/06/11 04:34:43;;;;;;;27.85;17.15;;;17.80;99.90;;;;;;5054479;28;20249;-81
2022/06/11 04:37:13;;;;;;;23.67;17.05;;;17.90;99.90;;;;;;5054147;28;20112;-81
2022/06/11 04:39:44;;;;;;;24.67;16.73;;;18.00;99.90;;;;;;5054349;28;20017;-79
2022/06/11 04:42:11;;;;;;;22.00;16.27;;;18.00;99.90;;;;;;5054210;28;20028;-80
2022/06/11 04:44:42;;;;;;;22.95;15.23;;;18.10;99.90;;;;;;5053320;28;20075;-77
2022/06/11 04:47:09;;;;;;;25.38;14.85;;;18.20;99.90;;;;;;5052928;28;20025;-77
2022/06/11 04:49:35;;;;;;;20.23;14.70;;;18.10;99.90;;;;;;5054123;28;20028;-79
2022/06/11 04:52:02;;;;;;;24.23;16.35;;;18.10;99.90;;;;;;5053769;28;20021;-78
2022/06/11 04:54:27;;;;;;;21.60;14.48;;;18.10;99.90;;;;;;5054440;28;20033;-80
2022/06/11 04:56:53;;;;;;;19.08;15.25;;;18.20;99.90;;;;;;5053938;28;20021;-81
2022/06/11 04:59:20;;;;;;;20.98;15.02;;;18.30;99.90;;;;;;5052481;28;20021;-80
2022/06/11 05:01:46;;;;;;;23.60;14.95;;;18.30;99.90;;;;;;5052669;28;20021;-79
2022/06/11 05:04:13;;;;;;;21.10;14.18;;;18.40;99.90;;;;;;5052086;28;20028;-80
2022/06/11 05:06:42;;;;;;;25.98;13.77;;;18.50;99.90;;;;;;5053592;28;20103;-79
2022/06/11 05:09:09;;;;;;;24.15;13.80;;;18.60;99.90;;;;;;5053644;28;20024;-80
2022/06/11 05:11:36;;;;;;;15.48;12.60;;;18.60;99.90;;;;;;5053165;28;20036;-81
2022/06/11 05:14:01;;;;;;;21.35;13.70;;;18.70;99.90;;;;;;5052244;28;20028;-80
2022/06/11 05:16:27;;;;;;;23.83;14.68;;;18.80;99.90;;;;;;5052578;28;20025;-79
2022/06/11 05:18:53;;;;;;;20.15;14.00;;;18.90;99.90;;;;;;5053141;28;20732;-79
2022/06/11 05:21:20;;;;;;;20.95;13.52;;;19.10;99.90;;;;;;5053787;28;20030;-78
2022/06/11 05:23:46;;;;;;;19.85;13.07;;;19.20;99.90;;;;;;5053483;28;20021;-79
2022/06/11 05:26:22;;;;;;;17.67;12.35;;;19.30;99.90;;;;;;5052088;28;20033;-79
2022/06/11 05:28:50;;;;;;;17.45;12.90;;;19.40;99.90;;;;;;5053789;28;20021;-79
2022/06/11 05:31:17;;;;;;;19.40;13.00;;;19.50;99.90;;;;;;5052192;28;20459;-79
2022/06/11 05:33:45;;;;;;;18.98;12.50;;;19.50;99.90;;;;;;5051944;28;20024;-79
2022/06/11 05:36:13;;;;;;;17.45;12.38;;;19.70;99.90;;;;;;5053345;28;20063;-78
2022/06/11 05:38:39;;;;;;;15.20;11.57;;;19.70;99.90;;;;;;5053488;28;20045;-80
2022/06/11 05:41:05;;;;;;;12.45;10.80;;;19.80;99.90;;;;;;5051930;28;20032;-80
2022/06/11 05:43:31;;;;;;;14.85;10.88;;;19.80;99.90;;;;;;5053480;28;20059;-80
2022/06/11 05:46:12;;;;;;;14.40;10.75;;;19.90;99.90;;;;;;5053719;28;20024;-80
2022/06/11 05:48:46;;;;;;;15.98;10.68;;;19.80;99.90;;;;;;5053071;28;20564;-78
2022/06/11 05:51:15;;;;;;;23.60;11.98;;;19.70;99.90;;;;;;5051885;28;20124;-79
2022/06/11 05:53:42;;;;;;;13.38;10.93;;;19.50;99.90;;;;;;5052465;28;20478;-78
2022/06/11 05:56:08;;;;;;;14.68;10.52;;;19.60;99.90;;;;;;5057231;28;20472;-78
2022/06/11 05:58:42;;;;;;;14.75;11.35;;;19.60;99.90;;;;;;5057494;28;20024;-81
2022/06/11 06:01:09;;;;;;;13.85;11.45;;;19.60;99.90;;;;;;5056854;28;20090;-77
2022/06/11 06:03:35;;;;;;;15.10;10.98;;;19.60;99.90;;;;;;5056158;28;20021;-80
2022/06/11 06:06:01;;;;;;;15.02;10.65;;;19.70;99.90;;;;;;5056618;28;20027;-77
2022/06/11 06:08:27;;;;;;;18.35;11.55;;;19.60;99.90;;;;;;5056636;28;20021;-79
2022/06/11 06:10:52;;;;;;;15.55;11.25;;;19.60;99.90;;;;;;5057130;28;20064;-81
2022/06/11 06:16:03;;;;;;;16.13;11.27;;;19.70;99.90;;;;;;5056600;28;20032;-80
2022/06/11 06:18:28;;;;;;;16.52;12.07;;;19.70;99.90;;;;;;5056663;28;20075;-78
2022/06/11 06:20:54;;;;;;;16.08;11.68;;;19.70;99.90;;;;;;5057271;28;20024;-77
2022/06/11 06:23:20;;;;;;;17.27;12.32;;;19.70;99.90;;;;;;5056060;28;20066;-78
2022/06/11 06:25:46;;;;;;;15.52;12.00;;;19.80;99.90;;;;;;5056792;28;20023;-78
2022/06/11 06:28:12;;;;;;;14.68;11.25;;;19.90;99.90;;;;;;5056574;28;20119;-77
2022/06/11 06:30:38;;;;;;;18.17;11.55;;;20.00;99.90;;;;;;5056431;28;20064;-78
2022/06/11 06:33:04;;;;;;;15.65;11.38;;;20.00;99.90;;;;;;5056816;28;20072;-80
2022/06/11 06:35:30;;;;;;;14.02;11.10;;;20.00;99.90;;;;;;5056719;28;20071;-76
2022/06/11 06:37:56;;;;;;;18.58;11.88;;;20.00;99.90;;;;;;5055998;28;20021;-78
2022/06/11 06:40:22;;;;;;;17.33;12.55;;;20.00;99.90;;;;;;5056432;28;20104;-79
2022/06/11 06:42:47;;;;;;;15.13;11.13;;;20.10;99.90;;;;;;5056654;28;20017;-79
2022/06/11 06:45:15;;;;;;;15.60;11.85;;;20.20;99.90;;;;;;5055307;28;20017;-79
2022/06/11 06:47:42;;;;;;;13.18;10.93;;;20.40;99.90;;;;;;5056299;28;20363;-79
2022/06/11 06:50:08;;;;;;;13.63;10.63;;;20.30;99.90;;;;;;5056129;28;20024;-78
2022/06/11 06:52:34;;;;;;;13.20;10.75;;;20.30;99.90;;;;;;5056745;28;20462;-78
2022/06/11 06:54:59;;;;;;;18.52;12.27;;;20.20;99.90;;;;;;5055150;28;20102;-78
2022/06/11 06:57:25;;;;;;;19.50;11.82;;;20.20;99.90;;;;;;5054729;28;20025;-79
2022/06/11 06:59:51;;;;;;;17.52;10.52;;;20.10;99.90;;;;;;5056327;28;20028;-77
2022/06/11 07:02:17;;;;;;;14.35;10.55;;;20.20;99.90;;;;;;5056347;28;20029;-78
2022/06/11 07:04:43;;;;;;;15.73;10.55;;;20.20;99.90;;;;;;5055848;28;20020;-78
2022/06/11 07:07:14;;;;;;;16.23;11.57;;;20.30;99.90;;;;;;5055164;28;20021;-76
2022/06/11 07:09:40;;;;;;;21.65;11.02;;;20.30;99.90;;;;;;5055971;28;20478;-76
2022/06/11 07:12:06;;;;;;;14.93;10.35;;;20.40;99.90;;;;;;5055780;28;20037;-76
2022/06/11 07:14:32;;;;;;;15.10;10.93;;;20.40;99.90;;;;;;5056044;28;20021;-77
2022/06/11 07:17:02;;;;;;;17.92;11.57;;;20.60;99.90;;;;;;5056307;28;20102;-76
2022/06/11 07:19:35;;;;;;;14.25;10.65;;;20.60;99.90;;;;;;5055301;28;20067;-76
2022/06/11 07:22:18;;;;;;;14.38;11.43;;;20.80;99.90;;;;;;5055658;28;20451;-78
2022/06/11 07:24:45;;;;;;;16.00;10.15;;;20.80;99.90;;;;;;5055149;28;20025;-75
2022/06/11 07:27:16;;;;;;;13.98;10.10;;;20.90;99.90;;;;;;5053778;28;20017;-75
2022/06/11 07:29:53;;;;;;;14.63;10.40;;;20.90;99.90;;;;;;5054010;28;20017;-74
2022/06/11 07:32:21;;;;;;;14.80;11.13;;;21.00;99.90;;;;;;5054932;28;20074;-75
2022/06/11 07:34:47;;;;;;;13.05;11.38;;;21.00;99.90;;;;;;5055020;28;20044;-73
2022/06/11 07:37:13;;;;;;;15.85;11.57;;;21.10;99.90;;;;;;5055331;28;20051;-75
2022/06/11 07:39:39;;;;;;;18.35;12.02;;;21.00;99.90;;;;;;5055224;28;20067;-77
2022/06/11 07:42:05;;;;;;;14.20;12.18;;;21.00;99.90;;;;;;5055279;28;20498;-77
2022/06/11 07:44:31;;;;;;;20.80;11.95;;;21.00;99.90;;;;;;5055500;28;20017;-77
2022/06/11 07:46:57;;;;;;;17.50;12.00;;;21.00;99.90;;;;;;5055084;28;20025;-77
2022/06/11 07:49:23;;;;;;;17.40;11.90;;;21.00;99.90;;;;;;5055689;28;20025;-76
2022/06/11 07:51:49;;;;;;;16.88;12.93;;;21.10;99.90;;;;;;5055241;28;20028;-76
2022/06/11 07:54:14;;;;;;;18.25;12.50;;;21.10;99.90;;;;;;5054926;28;20482;-75
2022/06/11 07:56:40;;;;;;;15.50;11.70;;;21.10;99.90;;;;;;5055165;28;20394;-75
2022/06/11 07:59:07;;;;;;;16.15;13.13;;;21.20;99.90;;;;;;5055175;28;20110;-76
2022/06/11 08:01:33;;;;;;;19.83;14.00;;;21.30;99.90;;;;;;5054363;28;20033;-76
2022/06/11 08:03:59;;;;;;;17.23;13.35;;;21.30;99.90;;;;;;5055051;28;20028;-76
2022/06/11 08:06:25;;;;;;;19.45;13.85;;;21.20;99.90;;;;;;5054676;28;20032;-76
2022/06/11 08:08:51;;;;;;;19.67;12.98;;;21.10;99.90;;;;;;5054131;28;20021;-75
2022/06/11 08:11:17;;;;;;;19.20;14.68;;;21.00;99.90;;;;;;5054245;28;20055;-75
2022/06/11 08:13:43;;;;;;;22.67;14.93;;;21.00;99.90;;;;;;5054567;28;20021;-77
2022/06/11 08:16:10;;;;;;;20.63;15.07;;;21.10;99.90;;;;;;5053576;28;20020;-77
2022/06/11 08:18:37;;;;;;;19.05;14.32;;;21.10;99.90;;;;;;5053042;28;20053;-74
2022/06/11 08:21:04;;;;;;;17.02;14.23;;;21.10;99.90;;;;;;5053223;28;20025;-76
2022/06/11 08:23:30;;;;;;;19.27;14.88;;;21.10;99.90;;;;;;5054624;28;20024;-75
2022/06/11 08:25:56;;;;;;;16.25;14.55;;;21.20;99.90;;;;;;5054354;28;20358;-77
2022/06/11 08:28:23;;;;;;;16.88;13.80;;;21.20;99.90;;;;;;5054294;28;20020;-75
2022/06/11 08:30:50;;;;;;;18.52;14.20;;;21.30;99.90;;;;;;5054576;28;20044;-76
2022/06/11 08:33:17;;;;;;;16.42;13.02;;;21.30;99.90;;;;;;5054562;28;20078;-77
2022/06/11 08:35:43;;;;;;;18.02;13.35;;;21.40;99.90;;;;;;5054220;28;20448;-75
2022/06/11 08:38:10;;;;;;;21.52;14.43;;;21.60;99.90;;;;;;5054550;28;20032;-76
2022/06/11 08:40:46;;;;;;;21.25;14.27;;;21.80;99.90;;;;;;5054193;28;20021;-75
2022/06/11 08:43:17;;;;;;;17.52;13.02;;;21.90;99.90;;;;;;5053222;28;20017;-75
2022/06/11 08:45:53;;;;;;;16.63;13.90;;;21.90;99.90;;;;;;5054286;28;20062;-75
2022/06/11 08:48:31;;;;;;;18.50;13.65;;;21.90;99.90;;;;;;5052001;28;20040;-74
2022/06/11 08:51:22;;;;;;;14.27;12.38;;;21.90;99.90;;;;;;5051079;28;20060;-75
2022/06/11 08:53:51;;;;;;;21.90;13.83;;;22.00;99.90;;;;;;5014979;28;20095;-74
2022/06/11 08:56:34;;;;;;;20.67;13.55;;;22.00;99.90;;;;;;5025802;28;20029;-74
2022/06/11 08:59:26;;;;;;;15.63;13.57;;;22.00;99.90;;;;;;5029521;28;20483;-75
2022/06/11 09:02:27;;;;;;;22.15;13.07;;;;;;;;;;5022512;28;20041;-76
2022/06/11 09:04:59;;;;;;;15.45;13.20;;;;;;;;;;4971568;28;20064;-73
2022/06/11 09:07:34;;;;;;;19.38;13.88;;;;;;;;;;4972243;28;20126;-76
2022/06/11 09:10:00;;;;;;;19.85;14.32;;;;;;;;;;4972088;28;20019;-74
2022/06/11 09:12:32;;;;;;;17.23;13.45;;;;;;;;;;4972736;28;20030;-76
2022/06/11 09:14:58;;;;;;;;;;;;;;;;;;4973478;28;20022;-74
2022/06/11 09:17:43;;;;;;;27.42;15.45;;;;;;;;;;4972691;28;20005;-77
2022/06/11 09:20:09;;;;;;;25.38;13.82;;;;;;;;;;4972524;28;20133;-74
2022/06/11 09:22:38;;;;;;;16.95;13.23;;;;;;;;;;4972084;28;20034;-77
2022/06/11 09:25:23;;;;;;;18.10;13.15;;;;;;;;;;4972381;28;20492;-75
2022/06/11 09:28:00;;;;;;;16.63;13.70;;;;;;;;;;4972892;28;20030;-77
2022/06/11 09:30:30;;;;;;;17.45;12.75;;;;;;;;;;4986151;28;20034;-75
2022/06/11 09:33:04;;;;;;;19.23;14.95;;;;;;;;;;5010657;28;20037;-76
2022/06/11 09:35:46;;;;;;;15.65;12.75;;;;;;;;;;4993917;28;20010;-76
2022/06/11 09:38:27;;;;;;;17.02;12.38;;;;;;;;;;5019825;28;20025;-76
2022/06/11 09:41:06;;;;;;;15.95;11.32;;;;;;;;;;5051516;28;20594;-74
2022/06/11 09:44:03;;;;;;;15.52;11.15;;;;;;;;;;5051813;28;20074;-76
2022/06/11 09:46:29;;;;;;;13.13;11.80;;;;;;;;;;5045842;28;20502;-76
2022/06/11 09:48:59;;;;;;;17.13;10.32;;;;;;;;;;5050353;28;20020;-76
2022/06/11 09:51:34;;;;;;;16.45;11.15;;;;;;;;;;5052096;28;20013;-75
2022/06/11 09:54:00;;;;;;;14.75;10.95;;;;;;;;;;5049987;28;20013;-74
2022/06/11 09:56:32;;;;;;;11.95;10.68;;;;;;;;;;5052509;28;20009;-75
2022/06/11 09:59:06;;;;;;;13.20;10.63;;;;;;;;;;5049856;28;20023;-76
2022/06/11 10:01:45;;;;;;;12.73;11.43;;;;;;;;;;5053038;28;20075;-76
2022/06/11 10:04:13;;;;;;;12.07;10.88;;;;;;;;;;5076386;28;20025;-77
2022/06/11 10:06:44;;;;;;;14.07;11.43;;;;;;;;;;5050193;28;20017;-75
2022/06/11 10:09:14;;;;;;;14.20;10.93;;;;;;;;;;5052725;28;20414;-73
2022/06/11 10:11:48;;;;;;;13.85;10.93;;;;;;;;;;5074602;28;20025;-76
2022/06/11 10:14:29;;;;;;;13.30;11.25;;;;;;;;;;5052358;28;20422;-76
2022/06/11 10:17:02;;;;;;;14.48;11.15;;;;;;;;;;5052713;28;20025;-76
2022/06/11 10:19:28;;;;;;;12.80;11.20;;;;;;;;;;5052806;28;20388;-76
2022/06/11 10:22:13;;;;;;;12.43;11.00;;;;;;;;;;5051217;28;20099;-76
2022/06/11 10:24:42;;;;;;;13.18;11.88;;;;;;;;;;5050400;28;20028;-74
2022/06/11 10:27:12;;;;;;;15.55;12.50;;;;;;;;;;5051894;28;20363;-75
2022/06/11 10:29:42;;;;;;;12.55;11.23;;;;;;;;;;5052723;28;20109;-76
2022/06/11 10:32:15;;;;;;;15.25;11.00;;;;;;;;;;5052714;28;20039;-78
2022/06/11 10:35:00;;;;;;;12.32;11.10;;;;;;;;;;5052454;28;20025;-76
2022/06/11 10:37:33;;;;;;;11.93;10.15;;;;;;;;;;5051916;28;20013;-75
2022/06/11 10:40:06;;;;;;;15.25;11.13;;;;;;;;;;5052858;28;20017;-76
2022/06/11 10:42:33;;;;;;;19.77;10.77;;;;;;;;;;5054048;28;20013;-77
2022/06/11 10:45:00;;;;;;;13.63;10.20;;;;;;;;;;5054395;28;20476;-77
2022/06/11 10:47:26;;;;;;;13.70;10.38;;;;;;;;;;5056315;28;20048;-77
2022/06/11 10:50:01;;;;;;;16.45;9.52;;;;;;;;;;5055319;28;20012;-75
2022/06/11 10:52:37;;;;;;;10.80;9.82;;;;;;;;;;5054607;28;20017;-76
2022/06/11 10:55:05;;;;;;;12.38;9.48;;;;;;;;;;5055385;28;20075;-77
2022/06/11 10:57:32;;;;;;;12.50;10.43;;;;;;;;;;5054543;28;20021;-77
2022/06/11 11:00:15;;;;;;;13.50;10.30;;;;;;;;;;5055667;28;20017;-78
2022/06/11 11:02:53;;;;;;;12.98;10.63;;;;;;;;;;5055598;28;20017;-78
2022/06/11 11:05:21;;;;;;;11.85;9.80;;;;;;;;;;5054261;28;20032;-79
2022/06/11 11:07:53;;;;;;;11.50;9.40;;;;;;;;;;5054870;28;20031;-77
2022/06/11 11:10:19;;;;;;;13.05;9.30;;;;;;;;;;5054799;28;20024;-78
2022/06/11 11:12:46;;;;;;;13.65;9.60;;;;;;;;;;5054414;28;20025;-78
2022/06/11 11:15:17;;;;;;;11.27;10.02;;;;;;;;;;5054172;28;20017;-78
2022/06/11 11:17:52;;;;;;;12.20;9.77;;;;;;;;;;5053679;28;20085;-76
2022/06/11 11:20:37;;;;;;;17.20;9.73;;;;;;;;;;5055719;28;20028;-78
2022/06/11 11:23:12;;;;;;;11.77;9.48;;;;;;;;;;5055139;28;20036;-76
2022/06/11 11:25:47;;;;;;;13.55;9.30;;;;;;;;;;5055616;28;20100;-77
2022/06/11 11:28:36;;;;;;;13.82;9.57;;;;;;;;;;5055116;28;20040;-77
2022/06/11 11:31:11;;;;;;;17.20;10.00;;;;;;;;;;5054567;28;20033;-77
2022/06/11 11:33:38;;;;;;;10.30;9.27;;;;;;;;;;5054001;28;20111;-75
2022/06/11 11:36:21;;;;;;;10.75;9.32;;;;;;;;;;5055234;28;20020;-76
2022/06/11 11:39:02;;;;;;;13.43;9.60;;;;;;;;;;5053680;28;20017;-77
2022/06/11 11:41:33;;;;;;;11.52;9.80;;;;;;;;;;5054871;28;20025;-76
2022/06/11 11:43:59;;;;;;;13.35;9.48;;;;;;;;;;5054597;28;20020;-78
2022/06/11 11:46:27;;;;;;;10.45;9.20;;;;;;;;;;5055129;28;20025;-77
2022/06/11 11:48:54;;;;;;;15.10;9.45;;;;;;;;;;5055330;28;20079;-78
2022/06/11 11:51:23;;;;;;;17.15;10.38;;;;;;;;;;5054264;28;20028;-78
2022/06/11 11:53:52;;;;;;;12.70;9.40;;;;;;;;;;5054168;28;20367;-78
2022/06/11 11:56:37;;;;;;;10.80;9.40;;;;;;;;;;5054423;28;20074;-79
2022/06/11 11:59:10;;;;;;;12.30;9.63;;;;;;;;;;5054222;28;20071;-76
2022/06/11 12:01:36;;;;;;;10.98;8.95;;;;;;;;;;5054819;28;20052;-76
2022/06/11 12:04:07;;;;;;;13.15;9.35;;;;;;;;;;5053336;28;20052;-75
2022/06/11 12:06:42;;;;;;;9.82;8.90;;;;;;;;;;5052814;28;20020;-76
2022/06/11 12:09:19;;;;;;;15.88;9.75;;;;;;;;;;5054726;28;20021;-77
2022/06/11 12:11:55;;;;;;;15.40;9.02;;;;;;;;;;5052880;28;20024;-78
2022/06/11 12:14:28;;;;;;;13.05;9.48;;;;;;;;;;5054333;28;20120;-76
2022/06/11 12:16:56;;;;;;;11.88;10.45;;;;;;;;;;5053651;28;20398;-75
2022/06/11 12:19:27;;;;;;;13.07;9.60;;;;;;;;;;5053749;28;20471;-76
2022/06/11 12:21:57;;;;;;;15.52;10.20;;;;;;;;;;5054334;28;20017;-79
2022/06/11 12:24:43;;;;;;;10.40;9.45;;;;;;;;;;5052799;28;20028;-77
2022/06/11 12:27:33;;;;;;;11.40;9.10;;;;;;;;;;5053607;28;20028;-77
2022/06/11 12:30:01;;;;;;;14.45;9.45;;;;;;;;;;5049743;28;20111;-78
2022/06/11 12:32:28;;;;;;;9.50;8.55;;;;;;;;;;5053933;28;20108;-79
2022/06/11 12:34:55;;;;;;;12.00;9.38;;;;;;;;;;5052495;28;20029;-77
2022/06/11 12:37:41;;;;;;;12.05;9.45;;;;;;;;;;5053793;28;20069;-77
2022/06/11 12:40:13;;;;;;;16.40;9.98;;;;;;;;;;5053675;28;20032;-78
2022/06/11 12:42:55;;;;;;;11.50;9.60;;;;;;;;;;5052803;28;20367;-76
2022/06/11 12:45:34;;;;;;;9.32;8.18;;;;;;;;;;5053442;28;20451;-78
2022/06/11 12:48:05;;;;;;;9.73;8.75;;;;;;;;;;5053217;28;20017;-77
2022/06/11 12:50:45;;;;;;;16.80;10.03;;;;;;;;;;5053281;28;20021;-77
2022/06/11 12:53:34;;;;;;;12.98;9.38;;;;;;;;;;5053631;28;20021;-77
2022/06/11 12:56:30;;;;;;;9.68;8.77;;;;;;;;;;5043288;28;20033;-74
2022/06/11 12:59:15;;;;;;;10.80;9.52;;;;;;;;;;5048509;28;20600;-77
2022/06/11 13:01:44;;;;;;;11.70;10.40;;;;;;;;;;5053609;28;20025;-76
2022/06/11 13:04:16;;;;;;;14.18;9.63;;;;;;;;;;5052929;28;20039;-76
2022/06/11 13:06:55;;;;;;;9.88;8.88;;;;;;;;;;5053358;28;20479;-75
2022/06/11 13:09:42;;;;;;;12.77;9.05;;;;;;;;;;5052894;28;20013;-78
2022/06/11 13:12:14;;;;;;;11.43;9.10;;;;;;;;;;5052073;28;20025;-77
2022/06/11 13:14:52;;;;;;;15.77;9.02;;;;;;;;;;5053414;28;20031;-78
2022/06/11 13:17:24;;;;;;;8.93;8.00;;;;;;;;;;5051881;28;20027;-76
2022/06/11 13:20:03;;;;;;;9.40;8.60;;;;;;;;;;5053436;28;20052;-78
2022/06/11 13:22:42;;;;;;;8.65;7.68;;;;;;;;;;5052640;28;20496;-76
2022/06/11 13:25:08;;;;;;;12.43;7.40;;;;;;;;;;5053287;28;20024;-76
2022/06/11 13:27:52;;;;;;;7.18;6.47;;;;;;;;;;5052822;28;20025;-78
2022/06/11 13:30:19;;;;;;;8.48;7.68;;;;;;;;;;5052517;28;20024;-75